Time;durP1;ratioP1;P1;durP2;ratioP2;P2;SDS_P1;SDS_P2;PMS_P1;PMS_P2;Temp;Humidity;BMP_temperature;BMP_pressure;BME280_temperature;BME280_humidity;BME280_pressure;Samples;Min_cycle;Max_cycle;Signal;HPM_P1;HPM_P2
2022/02/23 00:00:15;;;;;;;4.30;1.10;;;5.80;99.90;;;;;;4169205;28;20504;-75
2022/02/23 00:02:17;;;;;;;5.90;1.60;;;5.80;99.90;;;;;;4186562;28;20493;-76
2022/02/23 00:04:18;;;;;;;8.67;1.30;;;5.80;99.90;;;;;;4185409;28;21024;-75
2022/02/23 00:06:20;;;;;;;6.33;1.60;;;5.80;99.90;;;;;;4175950;28;20495;-74
2022/02/23 00:08:22;;;;;;;9.20;1.90;;;5.80;99.90;;;;;;4169841;28;20470;-77
2022/02/23 00:10:24;;;;;;;9.53;1.80;;;5.70;99.90;;;;;;4169332;28;20517;-76
2022/02/23 00:12:27;;;;;;;10.37;1.77;;;5.80;99.90;;;;;;4172836;28;20895;-76
2022/02/23 00:14:28;;;;;;;8.17;1.80;;;5.60;99.90;;;;;;4179940;28;20817;-76
2022/02/23 00:16:30;;;;;;;9.83;1.77;;;5.60;99.90;;;;;;4179510;28;20502;-77
2022/02/23 00:18:32;;;;;;;8.33;1.50;;;5.60;99.90;;;;;;4179030;28;21009;-77
2022/02/23 00:20:34;;;;;;;9.83;1.50;;;5.60;99.90;;;;;;4183842;28;20813;-76
2022/02/23 00:22:36;;;;;;;10.23;1.50;;;5.50;99.90;;;;;;4182044;28;20497;-78
2022/02/23 00:24:37;;;;;;;9.63;1.83;;;5.50;99.90;;;;;;4176374;28;20476;-76
2022/02/23 00:26:39;;;;;;;6.47;1.60;;;5.50;99.90;;;;;;4163813;28;20478;-76
2022/02/23 00:28:42;;;;;;;6.67;1.40;;;5.40;99.90;;;;;;4172948;28;20465;-76
2022/02/23 00:30:44;;;;;;;10.47;1.77;;;5.40;99.90;;;;;;4180480;28;20464;-75
2022/02/23 00:32:46;;;;;;;10.23;1.60;;;5.30;99.90;;;;;;4177293;28;20466;-75
2022/02/23 00:34:48;;;;;;;7.83;1.67;;;5.30;99.90;;;;;;4179744;28;20895;-75
2022/02/23 00:36:50;;;;;;;10.07;2.43;;;5.30;99.90;;;;;;4180378;28;20481;-76
2022/02/23 00:38:51;;;;;;;8.77;1.57;;;5.20;99.90;;;;;;4175703;28;20461;-75
2022/02/23 00:40:53;;;;;;;9.43;1.63;;;5.20;99.90;;;;;;4173931;28;20505;-74
2022/02/23 00:42:56;;;;;;;6.80;1.83;;;5.20;99.90;;;;;;4179169;28;20567;-76
2022/02/23 00:45:00;;;;;;;8.80;1.90;;;5.10;99.90;;;;;;4177146;28;20850;-76
2022/02/23 00:47:01;;;;;;;5.03;1.33;;;5.10;99.90;;;;;;4180114;28;20882;-75
2022/02/23 00:49:03;;;;;;;7.37;1.40;;;5.10;99.90;;;;;;4173077;28;20466;-74
2022/02/23 00:51:05;;;;;;;7.47;1.63;;;5.00;99.90;;;;;;4180115;28;20503;-74
2022/02/23 00:53:07;;;;;;;15.40;2.13;;;5.00;99.90;;;;;;4179686;28;20569;-74
2022/02/23 00:55:09;;;;;;;8.23;1.40;;;5.00;99.90;;;;;;4179812;28;21004;-74
2022/02/23 00:57:13;;;;;;;8.60;1.60;;;5.00;99.90;;;;;;4178218;28;20481;-75
2022/02/23 00:59:16;;;;;;;14.70;2.03;;;4.90;99.90;;;;;;4172352;28;20473;-75
2022/02/23 01:01:19;;;;;;;9.47;1.40;;;4.90;99.90;;;;;;4182007;28;20885;-74
2022/02/23 01:03:21;;;;;;;9.10;1.50;;;4.90;99.90;;;;;;4178333;28;20489;-75
2022/02/23 01:05:22;;;;;;;7.03;1.30;;;4.90;99.90;;;;;;4179809;28;20949;-75
2022/02/23 01:07:24;;;;;;;6.40;1.00;;;4.90;99.90;;;;;;4179273;28;20465;-75
2022/02/23 01:09:27;;;;;;;14.20;1.30;;;4.90;99.90;;;;;;4174356;28;20846;-74
2022/02/23 01:11:29;;;;;;;7.63;1.37;;;4.90;99.90;;;;;;4180303;28;20483;-74
2022/02/23 01:13:31;;;;;;;13.03;1.77;;;4.80;99.90;;;;;;4172140;28;20862;-74
2022/02/23 01:15:33;;;;;;;4.80;1.30;;;4.80;99.90;;;;;;4179208;28;20522;-74
2022/02/23 01:17:36;;;;;;;8.23;1.33;;;4.80;99.90;;;;;;4199788;22;20499;-81
2022/02/23 01:19:38;;;;;;;6.83;1.13;;;4.70;99.90;;;;;;4182105;28;20453;-80
2022/02/23 01:21:39;;;;;;;10.13;1.23;;;4.80;99.90;;;;;;4197168;28;20467;-81
2022/02/23 01:23:41;;;;;;;10.47;1.30;;;4.70;99.90;;;;;;4194694;28;20905;-81
2022/02/23 01:25:43;;;;;;;7.30;1.30;;;4.70;99.90;;;;;;4183860;28;20463;-80
2022/02/23 01:27:45;;;;;;;11.10;1.63;;;4.70;99.90;;;;;;4190917;28;20560;-82
2022/02/23 01:29:47;;;;;;;5.27;1.13;;;4.70;99.90;;;;;;4181029;28;20545;-81
2022/02/23 01:31:49;;;;;;;4.73;1.67;;;4.60;99.90;;;;;;4170744;28;20474;-81
2022/02/23 01:33:52;;;;;;;7.80;1.27;;;4.60;99.90;;;;;;4182827;28;20786;-81
2022/02/23 01:35:57;;;;;;;5.93;1.50;;;4.60;99.90;;;;;;4180211;28;20484;-80
2022/02/23 01:37:59;;;;;;;5.60;1.30;;;4.60;99.90;;;;;;4180264;28;20485;-80
2022/02/23 01:40:01;;;;;;;6.60;1.10;;;4.60;99.90;;;;;;4178492;28;20809;-80
2022/02/23 01:42:02;;;;;;;4.67;1.33;;;4.60;99.90;;;;;;4191223;28;20448;-80
2022/02/23 01:44:05;;;;;;;9.97;1.97;;;4.50;99.90;;;;;;4181435;28;20580;-83
2022/02/23 01:46:07;;;;;;;7.33;0.83;;;4.50;99.90;;;;;;4183081;28;20475;-80
2022/02/23 01:48:09;;;;;;;5.30;1.00;;;4.50;99.90;;;;;;4181675;28;20505;-83
2022/02/23 01:50:14;;;;;;;10.77;1.57;;;4.50;99.90;;;;;;4165914;28;20459;-80
2022/02/23 01:52:16;;;;;;;4.97;1.00;;;4.50;99.90;;;;;;4182483;28;20441;-80
2022/02/23 01:54:18;;;;;;;5.50;0.97;;;4.50;99.90;;;;;;4181732;28;20473;-82
2022/02/23 01:56:20;;;;;;;6.30;1.23;;;4.40;99.90;;;;;;4193004;28;20463;-82
2022/02/23 01:58:22;;;;;;;6.50;1.20;;;4.40;99.90;;;;;;4186248;28;20831;-81
2022/02/23 02:00:24;;;;;;;3.93;0.97;;;4.40;99.90;;;;;;4182591;28;20465;-82
2022/02/23 02:07:19;;;;;;;4.80;0.80;;;4.40;99.90;;;;;;4183306;28;20480;-82
2022/02/23 02:09:21;;;;;;;5.10;1.10;;;4.30;99.90;;;;;;4204784;28;20970;-80
2022/02/23 02:11:23;;;;;;;4.67;0.93;;;4.30;99.90;;;;;;4208367;28;20799;-80
2022/02/23 02:13:25;;;;;;;3.97;1.17;;;4.30;99.90;;;;;;4207923;28;20451;-80
2022/02/23 02:15:27;;;;;;;5.53;1.10;;;4.30;99.90;;;;;;4199149;28;21030;-80
2022/02/23 02:17:28;;;;;;;5.63;1.80;;;4.20;99.90;;;;;;4190403;28;20504;-80
2022/02/23 02:19:31;;;;;;;10.10;1.40;;;4.20;99.90;;;;;;4201170;28;20456;-81
2022/02/23 02:21:51;;;;;;;8.33;1.27;;;4.20;99.90;;;;;;4207718;28;20531;-81
2022/02/23 02:23:53;;;;;;;3.23;0.90;;;4.10;99.90;;;;;;4196000;28;20514;-80
2022/02/23 02:25:54;;;;;;;4.17;0.90;;;4.20;99.90;;;;;;4202097;28;20513;-80
2022/02/23 02:27:56;;;;;;;13.43;1.30;;;4.10;99.90;;;;;;4205291;28;20472;-82
2022/02/23 02:30:00;;;;;;;7.40;1.23;;;4.10;99.90;;;;;;4204755;28;20484;-80
2022/02/23 02:32:02;;;;;;;5.57;1.30;;;4.10;99.90;;;;;;4205870;28;20926;-80
2022/02/23 02:34:04;;;;;;;6.13;1.13;;;4.20;99.90;;;;;;4201073;28;20988;-81
2022/02/23 02:36:06;;;;;;;3.83;1.00;;;4.00;99.90;;;;;;4200033;28;20455;-80
2022/02/23 02:38:09;;;;;;;2.23;1.00;;;4.00;99.90;;;;;;4199079;28;20487;-80
2022/02/23 02:40:12;;;;;;;4.07;0.80;;;4.00;99.90;;;;;;4199274;28;20471;-81
2022/02/23 02:42:14;;;;;;;14.37;1.30;;;4.00;99.90;;;;;;4189915;28;20988;-80
2022/02/23 02:44:16;;;;;;;12.70;1.57;;;4.00;99.90;;;;;;4197873;28;20980;-80
2022/02/23 02:46:18;;;;;;;9.43;1.63;;;4.00;99.90;;;;;;4198188;28;20456;-80
2022/02/23 02:48:20;;;;;;;6.30;1.00;;;4.00;99.90;;;;;;4198233;28;20463;-81
2022/02/23 02:50:21;;;;;;;7.97;1.53;;;4.60;99.90;;;;;;4193436;28;20518;-80
2022/02/23 02:52:23;;;;;;;10.93;1.37;;;4.00;99.90;;;;;;4199019;28;20494;-82
2022/02/23 02:54:26;;;;;;;8.87;1.10;;;4.00;99.90;;;;;;4200248;28;20519;-80
2022/02/23 02:56:28;;;;;;;5.90;1.20;;;4.00;99.90;;;;;;4199456;28;20494;-80
2022/02/23 02:58:30;;;;;;;11.90;1.30;;;4.00;99.90;;;;;;4200945;28;20449;-80
2022/02/23 03:00:32;;;;;;;4.17;1.47;;;4.20;99.90;;;;;;4187497;28;20457;-81
2022/02/23 03:02:34;;;;;;;10.17;1.40;;;4.10;99.90;;;;;;4182700;28;20476;-80
2022/02/23 03:04:36;;;;;;;6.37;1.77;;;4.00;99.90;;;;;;4197853;28;20484;-81
2022/02/23 03:06:38;;;;;;;7.40;1.17;;;4.10;99.90;;;;;;4194946;28;20480;-82
2022/02/23 03:08:39;;;;;;;10.60;1.57;;;4.10;99.90;;;;;;4202647;28;20765;-81
2022/02/23 03:10:43;;;;;;;6.93;1.23;;;4.10;99.90;;;;;;4198465;28;20928;-80
2022/02/23 03:12:46;;;;;;;9.00;1.37;;;4.10;99.90;;;;;;4200913;28;20540;-81
2022/02/23 03:14:48;;;;;;;9.97;2.00;;;4.10;99.90;;;;;;4203656;28;20454;-81
2022/02/23 03:16:50;;;;;;;8.53;1.63;;;4.10;99.90;;;;;;4194797;28;20476;-80
2022/02/23 03:18:52;;;;;;;10.07;1.50;;;4.10;99.90;;;;;;4198350;28;20956;-82
2022/02/23 03:20:54;;;;;;;7.53;1.60;;;4.20;99.90;;;;;;4203835;28;20467;-80
2022/02/23 03:22:56;;;;;;;9.67;1.37;;;4.10;99.90;;;;;;4203143;28;20460;-80
2022/02/23 03:24:57;;;;;;;9.57;2.03;;;4.10;99.90;;;;;;4200325;28;20479;-80
2022/02/23 03:27:00;;;;;;;7.63;1.77;;;4.20;99.90;;;;;;4189712;28;20541;-80
2022/02/23 03:29:03;;;;;;;12.70;1.70;;;4.20;99.90;;;;;;4197570;28;20447;-81
2022/02/23 03:31:04;;;;;;;7.90;1.53;;;4.20;99.90;;;;;;4194080;28;20863;-81
2022/02/23 03:33:07;;;;;;;11.27;1.77;;;4.40;99.90;;;;;;4200349;28;20466;-82
2022/02/23 03:35:09;;;;;;;10.60;1.70;;;4.30;99.90;;;;;;4197082;28;20464;-81
2022/02/23 03:37:11;;;;;;;11.30;1.90;;;4.30;99.90;;;;;;4202352;28;20458;-80
2022/02/23 03:39:13;;;;;;;12.97;2.17;;;4.30;99.90;;;;;;4198410;28;20838;-81
2022/02/23 03:41:15;;;;;;;11.90;2.03;;;4.30;99.90;;;;;;4205805;28;20534;-80
2022/02/23 03:43:18;;;;;;;10.43;1.60;;;4.30;99.90;;;;;;4200690;28;20465;-80
2022/02/23 03:45:21;;;;;;;8.07;1.53;;;4.30;99.90;;;;;;4183208;28;20536;-80
2022/02/23 03:47:23;;;;;;;10.13;1.73;;;4.40;99.90;;;;;;4206991;28;20483;-81
2022/02/23 03:49:25;;;;;;;7.87;2.07;;;4.30;99.90;;;;;;4200854;28;20461;-80
2022/02/23 03:51:27;;;;;;;13.70;2.10;;;4.30;99.90;;;;;;4199671;28;20455;-82
2022/02/23 03:53:29;;;;;;;12.57;1.90;;;4.30;99.90;;;;;;4206144;28;20458;-79
2022/02/23 03:55:31;;;;;;;10.70;1.90;;;4.60;99.90;;;;;;4211561;28;20937;-80
2022/02/23 03:57:33;;;;;;;8.83;1.83;;;4.40;99.90;;;;;;4198268;28;20579;-81
2022/02/23 03:59:36;;;;;;;13.57;1.80;;;4.50;99.90;;;;;;4196548;28;20498;-80
2022/02/23 04:01:40;;;;;;;11.13;2.00;;;4.60;99.90;;;;;;4207746;28;20542;-80
2022/02/23 04:03:42;;;;;;;9.27;1.67;;;4.40;99.90;;;;;;4198085;28;21055;-80
2022/02/23 04:05:44;;;;;;;6.70;1.43;;;4.40;99.90;;;;;;4196501;28;20884;-82
2022/02/23 04:07:47;;;;;;;10.53;1.77;;;4.40;99.90;;;;;;4197560;28;20529;-82
2022/02/23 04:09:49;;;;;;;13.20;1.87;;;4.40;99.90;;;;;;4191127;28;20817;-80
2022/02/23 04:11:51;;;;;;;13.03;1.60;;;4.40;99.90;;;;;;4186537;28;20452;-80
2022/02/23 04:13:52;;;;;;;10.77;1.80;;;4.50;99.90;;;;;;4197106;28;20461;-83
2022/02/23 04:15:55;;;;;;;8.97;1.53;;;4.40;99.90;;;;;;4202413;28;20469;-81
2022/02/23 04:17:57;;;;;;;12.53;2.10;;;4.40;99.90;;;;;;4190885;28;20482;-83
2022/02/23 04:19:59;;;;;;;12.63;1.70;;;4.40;99.90;;;;;;4196651;28;20456;-80
2022/02/23 04:22:01;;;;;;;11.23;2.13;;;4.40;99.90;;;;;;4198028;28;20471;-80
2022/02/23 04:24:03;;;;;;;9.53;1.70;;;4.40;99.90;;;;;;4199209;28;20492;-80
2022/02/23 04:26:05;;;;;;;5.70;1.57;;;4.40;99.90;;;;;;4196265;28;20496;-80
2022/02/23 04:28:07;;;;;;;11.87;2.53;;;4.40;99.90;;;;;;4191174;28;20992;-79
2022/02/23 04:30:10;;;;;;;8.10;1.60;;;4.40;99.90;;;;;;4199804;28;20485;-80
2022/02/23 04:32:13;;;;;;;5.07;1.57;;;4.40;99.90;;;;;;4194925;28;20479;-79
2022/02/23 04:34:15;;;;;;;10.53;2.07;;;4.40;99.90;;;;;;4202380;28;20455;-80
2022/02/23 04:36:17;;;;;;;12.90;1.80;;;4.40;99.90;;;;;;4199800;28;20473;-80
2022/02/23 04:38:19;;;;;;;9.10;1.73;;;4.30;99.90;;;;;;4198425;28;20459;-80
2022/02/23 04:40:21;;;;;;;9.80;1.87;;;4.30;99.90;;;;;;4198707;28;20527;-80
2022/02/23 04:42:23;;;;;;;9.57;1.83;;;4.30;99.90;;;;;;4207824;28;20467;-81
2022/02/23 04:44:25;;;;;;;9.77;2.50;;;4.30;99.90;;;;;;4199605;28;20899;-82
2022/02/23 04:46:27;;;;;;;11.97;2.40;;;4.30;99.90;;;;;;4190036;28;20522;-80
2022/02/23 04:48:30;;;;;;;11.67;2.03;;;4.40;99.90;;;;;;4202178;28;20513;-82
2022/02/23 04:50:32;;;;;;;8.03;1.87;;;4.30;99.90;;;;;;4195326;28;20460;-84
2022/02/23 04:52:37;;;;;;;13.70;2.00;;;4.30;99.90;;;;;;4197301;28;20862;-80
2022/02/23 04:54:39;;;;;;;13.10;1.90;;;4.30;99.90;;;;;;4193310;28;20560;-83
2022/02/23 04:56:43;;;;;;;9.07;1.57;;;4.30;99.90;;;;;;4205552;28;20472;-80
2022/02/23 04:58:45;;;;;;;10.30;1.80;;;4.30;99.90;;;;;;4212529;28;20938;-81
2022/02/23 05:00:48;;;;;;;10.17;1.77;;;4.30;99.90;;;;;;4201522;28;20451;-80
2022/02/23 05:02:50;;;;;;;8.50;1.90;;;4.30;99.90;;;;;;4199010;28;20549;-80
2022/02/23 05:04:53;;;;;;;9.43;1.77;;;4.50;99.90;;;;;;4208161;28;20578;-80
2022/02/23 05:06:55;;;;;;;11.50;2.20;;;4.30;99.90;;;;;;4196778;28;20460;-80
2022/02/23 05:08:57;;;;;;;14.00;1.90;;;4.30;99.90;;;;;;4197560;28;20459;-80
2022/02/23 05:10:59;;;;;;;22.07;2.77;;;4.30;99.90;;;;;;4202678;28;20525;-79
2022/02/23 05:13:01;;;;;;;14.47;2.43;;;4.40;99.90;;;;;;4197323;28;20460;-80
2022/02/23 05:15:04;;;;;;;12.10;1.83;;;4.30;99.90;;;;;;4179230;28;20475;-80
2022/02/23 05:17:06;;;;;;;10.90;1.83;;;4.30;99.90;;;;;;4183490;28;20507;-82
2022/02/23 05:19:08;;;;;;;8.67;1.53;;;4.30;99.90;;;;;;4192830;28;20459;-80
2022/02/23 05:21:11;;;;;;;10.17;1.60;;;4.30;99.90;;;;;;4196790;28;20456;-81
2022/02/23 05:23:14;;;;;;;10.97;1.80;;;4.30;99.90;;;;;;4196774;28;20556;-80
2022/02/23 05:25:16;;;;;;;10.13;1.63;;;4.40;99.90;;;;;;4195062;28;20493;-80
2022/02/23 05:27:18;;;;;;;7.87;1.60;;;4.40;99.90;;;;;;4197445;28;20465;-80
2022/02/23 05:29:20;;;;;;;10.90;2.03;;;4.30;99.90;;;;;;4196319;28;20451;-82
2022/02/23 05:31:22;;;;;;;11.67;1.70;;;4.40;99.90;;;;;;4199867;28;20455;-80
2022/02/23 05:33:23;;;;;;;13.43;2.23;;;4.40;99.90;;;;;;4202747;28;20480;-80
2022/02/23 05:35:25;;;;;;;8.50;2.10;;;4.40;99.90;;;;;;4209557;28;20489;-80
2022/02/23 05:37:28;;;;;;;12.90;1.83;;;4.40;99.90;;;;;;4212325;28;20466;-80
2022/02/23 05:39:30;;;;;;;9.73;1.70;;;4.40;99.90;;;;;;4195778;28;20474;-81
2022/02/23 05:41:32;;;;;;;11.77;1.93;;;4.30;99.90;;;;;;4196604;28;20448;-80
2022/02/23 05:43:34;;;;;;;12.40;2.03;;;4.60;99.90;;;;;;4195805;28;20475;-80
2022/02/23 05:45:36;;;;;;;12.93;1.60;;;4.50;99.90;;;;;;4196234;28;20898;-81
2022/02/23 05:47:37;;;;;;;11.93;2.27;;;4.30;99.90;;;;;;4197406;28;20824;-84
2022/02/23 05:49:39;;;;;;;11.80;2.13;;;4.40;99.90;;;;;;4195229;28;20476;-80
2022/02/23 05:51:46;;;;;;;13.27;2.10;;;4.40;99.90;;;;;;4198555;28;20474;-81
2022/02/23 05:53:49;;;;;;;14.57;2.40;;;4.40;99.90;;;;;;4192257;28;20457;-80
2022/02/23 05:55:51;;;;;;;9.73;1.60;;;4.40;99.90;;;;;;4181360;28;20449;-80
2022/02/23 05:57:53;;;;;;;8.93;1.90;;;4.40;99.90;;;;;;4188788;28;20479;-80
2022/02/23 05:59:55;;;;;;;12.43;1.70;;;4.50;99.90;;;;;;4198707;28;20825;-81
2022/02/23 06:01:56;;;;;;;5.57;2.03;;;4.40;99.90;;;;;;4187933;28;21531;-80
2022/02/23 06:03:58;;;;;;;6.27;1.70;;;4.50;99.90;;;;;;4183151;28;20510;-80
2022/02/23 06:06:00;;;;;;;7.43;1.20;;;4.50;99.90;;;;;;4174741;28;21125;-80
2022/02/23 06:08:02;;;;;;;10.03;1.90;;;4.50;99.90;;;;;;4177105;28;20492;-80
2022/02/23 06:10:06;;;;;;;10.53;1.77;;;4.50;99.90;;;;;;4174674;28;20541;-80
2022/02/23 06:12:08;;;;;;;10.07;1.90;;;4.50;99.90;;;;;;4167988;28;20468;-80
2022/02/23 06:14:10;;;;;;;12.97;1.90;;;4.50;99.90;;;;;;4165142;28;20514;-80
2022/02/23 06:16:12;;;;;;;11.20;1.67;;;4.50;99.90;;;;;;4168138;28;20468;-80
2022/02/23 06:18:14;;;;;;;13.27;2.00;;;4.50;99.90;;;;;;4173508;28;20844;-80
2022/02/23 06:20:16;;;;;;;8.00;1.73;;;4.50;99.90;;;;;;4174000;28;20456;-80
2022/02/23 06:22:17;;;;;;;8.80;1.70;;;4.50;99.90;;;;;;4172310;28;20476;-80
2022/02/23 06:24:19;;;;;;;18.37;1.90;;;4.80;99.90;;;;;;4177219;28;20508;-80
2022/02/23 06:26:23;;;;;;;11.17;1.93;;;4.50;99.90;;;;;;4180573;28;20465;-80
2022/02/23 06:28:25;;;;;;;7.23;1.17;;;4.50;99.90;;;;;;4192369;28;20800;-80
2022/02/23 06:30:27;;;;;;;8.73;1.80;;;4.50;99.90;;;;;;4199737;28;20456;-81
2022/02/23 06:32:29;;;;;;;14.47;1.70;;;4.50;99.90;;;;;;4203469;28;20866;-81
2022/02/23 06:34:30;;;;;;;11.83;1.77;;;4.50;99.90;;;;;;4181222;28;20540;-80
2022/02/23 06:36:32;;;;;;;13.47;2.00;;;4.50;99.90;;;;;;4193634;28;20488;-81
2022/02/23 06:38:36;;;;;;;12.47;2.00;;;4.50;99.90;;;;;;4209471;28;20501;-80
2022/02/23 06:40:38;;;;;;;13.30;1.97;;;4.50;99.90;;;;;;4202908;28;20756;-81
2022/02/23 06:42:41;;;;;;;12.43;2.00;;;4.50;99.90;;;;;;4201477;28;20534;-80
2022/02/23 06:44:44;;;;;;;8.50;1.47;;;4.50;99.90;;;;;;4192660;28;20480;-81
2022/02/23 06:46:47;;;;;;;9.67;1.60;;;4.50;99.90;;;;;;4209250;28;20486;-80
2022/02/23 06:48:50;;;;;;;10.73;1.97;;;4.50;99.90;;;;;;4208333;28;21004;-81
2022/02/23 06:50:52;;;;;;;9.33;1.77;;;4.50;99.90;;;;;;4207739;28;20491;-81
2022/02/23 06:52:54;;;;;;;10.40;1.43;;;4.60;99.90;;;;;;4204897;28;20843;-81
2022/02/23 06:54:56;;;;;;;9.23;2.20;;;4.60;99.90;;;;;;4200306;28;20456;-81
2022/02/23 06:56:58;;;;;;;11.60;2.13;;;4.60;99.90;;;;;;4196181;28;20562;-81
2022/02/23 06:59:04;;;;;;;14.93;1.97;;;4.60;99.90;;;;;;4194857;28;20463;-81
2022/02/23 07:01:06;;;;;;;14.03;1.90;;;4.60;99.90;;;;;;4188809;28;20445;-81
2022/02/23 07:03:08;;;;;;;6.83;1.70;;;4.60;99.90;;;;;;4191292;28;20870;-81
2022/02/23 07:05:11;;;;;;;8.43;1.53;;;4.60;99.90;;;;;;4192537;28;20488;-81
2022/02/23 07:07:13;;;;;;;13.80;2.30;;;4.60;99.90;;;;;;4189914;28;20500;-81
2022/02/23 07:09:15;;;;;;;11.77;1.73;;;4.60;99.90;;;;;;4196026;28;20461;-81
2022/02/23 07:11:19;;;;;;;14.43;2.40;;;4.70;99.90;;;;;;4195533;28;20990;-83
2022/02/23 07:13:21;;;;;;;13.50;1.73;;;4.70;99.90;;;;;;4196218;28;21035;-85
2022/02/23 07:15:25;;;;;;;9.70;1.60;;;4.70;99.90;;;;;;4196783;28;20455;-81
2022/02/23 07:17:27;;;;;;;9.33;1.53;;;4.70;99.90;;;;;;4202318;22;20513;-74
2022/02/23 07:19:29;;;;;;;9.67;1.70;;;4.70;99.90;;;;;;4175547;28;20462;-74
2022/02/23 07:21:31;;;;;;;11.63;1.70;;;4.70;99.90;;;;;;4171515;28;20526;-73
2022/02/23 07:23:33;;;;;;;9.00;1.60;;;4.80;99.90;;;;;;4187753;28;20563;-73
2022/02/23 07:25:35;;;;;;;8.37;2.00;;;4.90;99.90;;;;;;4197906;28;20492;-74
2022/02/23 07:27:37;;;;;;;10.93;1.87;;;4.70;99.90;;;;;;4191527;28;20911;-74
2022/02/23 07:29:39;;;;;;;11.10;2.23;;;4.80;99.90;;;;;;4190367;28;21324;-75
2022/02/23 07:31:44;;;;;;;14.07;2.23;;;4.90;99.90;;;;;;4194628;28;20455;-75
2022/02/23 07:33:46;;;;;;;11.57;1.77;;;4.80;99.90;;;;;;4187557;28;20873;-73
2022/02/23 07:35:48;;;;;;;10.60;1.70;;;4.80;99.90;;;;;;4204702;28;20498;-73
2022/02/23 07:37:52;;;;;;;6.93;2.00;;;4.80;99.90;;;;;;4200565;28;20570;-74
2022/02/23 07:39:56;;;;;;;11.83;1.70;;;4.80;99.90;;;;;;4201987;28;20463;-74
2022/02/23 07:41:58;;;;;;;12.37;1.97;;;4.80;99.90;;;;;;4202996;28;20472;-73
2022/02/23 07:44:00;;;;;;;6.97;2.00;;;4.80;99.90;;;;;;4201531;28;20461;-73
2022/02/23 07:46:02;;;;;;;12.07;2.37;;;4.80;99.90;;;;;;4201524;28;20483;-73
2022/02/23 07:48:07;;;;;;;8.77;1.67;;;5.60;99.90;;;;;;4189375;28;20555;-74
2022/02/23 07:50:12;;;;;;;9.37;2.07;;;4.80;99.90;;;;;;4193282;28;20866;-75
2022/02/23 07:52:14;;;;;;;7.17;1.73;;;4.90;99.90;;;;;;4192121;28;20460;-74
2022/02/23 07:54:16;;;;;;;11.70;1.80;;;4.80;99.90;;;;;;4192086;28;20500;-74
2022/02/23 07:56:18;;;;;;;8.63;1.43;;;4.90;99.90;;;;;;4191713;28;20457;-73
2022/02/23 07:58:19;;;;;;;12.83;1.60;;;4.90;99.90;;;;;;4191084;28;21075;-74
2022/02/23 08:00:22;;;;;;;8.73;2.03;;;4.90;99.90;;;;;;4191907;28;20465;-74
2022/02/23 08:02:24;;;;;;;15.30;2.00;;;4.90;99.90;;;;;;4194490;28;20453;-74
2022/02/23 08:04:28;;;;;;;14.57;2.23;;;5.00;99.90;;;;;;4192062;28;20500;-74
2022/02/23 08:06:31;;;;;;;10.13;1.87;;;5.00;99.90;;;;;;4194995;28;20954;-74
2022/02/23 08:08:32;;;;;;;12.30;2.03;;;5.00;99.90;;;;;;4190402;28;20487;-74
2022/02/23 08:10:34;;;;;;;9.93;2.53;;;5.00;99.90;;;;;;4195887;28;21022;-75
2022/02/23 08:12:36;;;;;;;11.47;2.37;;;5.10;99.90;;;;;;4197164;28;20462;-74
2022/02/23 08:14:39;;;;;;;10.80;1.80;;;5.10;99.90;;;;;;4195466;28;20472;-74
2022/02/23 08:21:22;;;;;;;10.57;1.77;;;5.30;99.90;;;;;;4194543;28;20624;-74
2022/02/23 08:23:24;;;;;;;7.27;1.37;;;5.30;99.90;;;;;;4192239;28;20563;-75
2022/02/23 08:25:26;;;;;;;6.93;1.67;;;5.30;99.90;;;;;;4194927;28;20546;-75
2022/02/23 08:27:28;;;;;;;8.63;1.70;;;5.40;99.90;;;;;;4189663;28;20492;-74
2022/02/23 08:29:31;;;;;;;8.90;1.40;;;5.40;99.90;;;;;;4191803;28;20973;-73
2022/02/23 08:31:32;;;;;;;6.37;1.33;;;5.40;99.90;;;;;;4195417;28;20537;-74
2022/02/23 08:33:34;;;;;;;10.07;1.73;;;5.40;99.90;;;;;;4194192;28;20478;-74
2022/02/23 08:35:36;;;;;;;11.63;1.83;;;5.50;99.90;;;;;;4196303;28;20456;-74
2022/02/23 08:37:39;;;;;;;11.20;1.67;;;5.50;99.90;;;;;;4195660;28;20480;-74
2022/02/23 08:39:43;;;;;;;7.47;1.40;;;5.50;99.90;;;;;;4198525;28;20970;-75
2022/02/23 08:41:45;;;;;;;5.63;1.63;;;5.50;99.90;;;;;;4197321;28;20536;-74
2022/02/23 08:43:46;;;;;;;12.77;2.03;;;5.50;99.90;;;;;;4186911;28;20923;-72
2022/02/23 08:45:48;;;;;;;13.27;1.63;;;5.50;99.90;;;;;;4194253;28;20500;-73
2022/02/23 08:47:50;;;;;;;12.40;1.90;;;5.60;99.90;;;;;;4193968;28;20505;-73
2022/02/23 08:49:51;;;;;;;16.77;1.90;;;5.60;99.90;;;;;;4194598;28;20522;-74
2022/02/23 08:51:53;;;;;;;10.90;2.20;;;5.60;99.90;;;;;;4191428;28;20746;-74
2022/02/23 08:53:56;;;;;;;8.47;1.83;;;5.60;99.90;;;;;;4192190;28;20538;-76
2022/02/23 08:55:58;;;;;;;14.20;2.00;;;5.70;99.90;;;;;;4190736;28;20514;-75
2022/02/23 08:58:01;;;;;;;17.57;1.87;;;5.70;99.90;;;;;;4187105;28;20579;-74
2022/02/23 09:00:05;;;;;;;13.00;2.07;;;5.80;99.90;;;;;;4191736;28;20844;-73
2022/02/23 09:02:07;;;;;;;14.03;2.07;;;5.80;99.90;;;;;;4189148;28;20477;-73
2022/02/23 09:04:08;;;;;;;11.17;2.03;;;5.90;99.90;;;;;;4185135;28;20492;-74
2022/02/23 09:06:10;;;;;;;11.40;1.73;;;5.90;99.90;;;;;;4186936;28;20514;-75
2022/02/23 09:08:12;;;;;;;13.97;1.60;;;6.00;99.90;;;;;;4190537;28;20489;-75
2022/02/23 09:10:16;;;;;;;11.67;1.97;;;6.00;99.90;;;;;;4192300;28;21091;-74
2022/02/23 09:12:17;;;;;;;6.43;1.50;;;6.00;99.90;;;;;;4189218;28;20480;-74
2022/02/23 09:14:19;;;;;;;12.47;1.90;;;6.10;99.90;;;;;;4188039;28;20463;-73
2022/02/23 09:16:21;;;;;;;8.37;1.80;;;6.10;99.90;;;;;;4185584;28;20474;-74
2022/02/23 09:18:22;;;;;;;8.57;1.57;;;6.10;99.90;;;;;;4186087;28;20501;-73
2022/02/23 09:20:24;;;;;;;12.23;2.23;;;6.10;99.90;;;;;;4187924;28;20478;-74
2022/02/23 09:22:26;;;;;;;8.20;1.50;;;6.20;99.90;;;;;;4192626;28;20996;-75
2022/02/23 09:24:28;;;;;;;13.03;2.00;;;6.30;99.90;;;;;;4185433;28;20466;-73
2022/02/23 09:26:31;;;;;;;9.33;1.80;;;6.30;99.90;;;;;;4186963;28;20490;-74
2022/02/23 09:28:34;;;;;;;10.30;1.67;;;6.40;99.90;;;;;;4186364;28;20496;-74
2022/02/23 09:30:36;;;;;;;9.73;1.90;;;6.50;99.90;;;;;;4187447;28;20579;-73
2022/02/23 09:32:37;;;;;;;9.20;1.70;;;6.60;99.90;;;;;;4191029;28;20460;-73
2022/02/23 09:34:39;;;;;;;6.67;1.73;;;6.70;99.90;;;;;;4191772;28;21001;-73
2022/02/23 09:36:41;;;;;;;9.17;2.13;;;6.70;99.90;;;;;;4189621;28;20454;-73
2022/02/23 09:38:44;;;;;;;7.83;1.80;;;6.80;99.90;;;;;;4185418;28;20563;-74
2022/02/23 09:40:48;;;;;;;11.63;1.60;;;6.80;99.90;;;;;;4189730;28;20466;-73
2022/02/23 09:42:51;;;;;;;10.33;1.60;;;6.80;99.90;;;;;;4189278;28;20470;-73
2022/02/23 09:44:54;;;;;;;9.40;1.47;;;6.80;99.90;;;;;;4189088;28;20712;-73
2022/02/23 09:46:55;;;;;;;14.37;1.47;;;6.80;99.90;;;;;;4187933;28;20533;-74
2022/02/23 09:48:58;;;;;;;8.20;1.30;;;6.90;99.90;;;;;;4188497;28;20472;-74
2022/02/23 09:51:00;;;;;;;7.13;1.60;;;6.90;99.90;;;;;;4189856;28;20996;-73
2022/02/23 09:53:02;;;;;;;7.07;1.60;;;6.90;99.90;;;;;;4185431;28;20466;-74
2022/02/23 09:55:07;;;;;;;7.87;2.23;;;6.90;99.90;;;;;;4186437;28;20476;-76
2022/02/23 09:57:08;;;;;;;10.27;1.60;;;7.00;99.90;;;;;;4193628;28;20482;-73
2022/02/23 09:59:12;;;;;;;11.33;1.90;;;7.00;99.90;;;;;;4187349;28;20595;-74
2022/02/23 10:01:14;;;;;;;10.03;1.60;;;7.00;99.90;;;;;;4188351;28;20475;-73
2022/02/23 10:03:16;;;;;;;11.80;2.40;;;7.00;99.90;;;;;;4191318;28;20455;-73
2022/02/23 10:05:19;;;;;;;13.60;1.70;;;7.50;99.90;;;;;;4188322;28;20578;-73
2022/02/23 10:07:30;;;;;;;15.07;2.20;;;7.00;99.90;;;;;;4185175;28;20804;-73
2022/02/23 10:09:41;;;;;;;9.83;2.00;;;7.00;99.90;;;;;;4191614;28;20464;-73
2022/02/23 10:11:47;;;;;;;10.57;1.70;;;7.10;99.90;;;;;;4190272;28;20788;-72
2022/02/23 10:13:51;;;;;;;9.33;1.60;;;7.10;99.90;;;;;;4192815;28;20496;-75
2022/02/23 10:15:58;;;;;;;8.33;1.57;;;7.10;99.90;;;;;;4187080;28;20531;-74
2022/02/23 10:18:07;;;;;;;8.30;1.40;;;7.20;99.90;;;;;;4196373;28;20491;-74
2022/02/23 10:20:26;;;;;;;11.33;1.87;;;7.20;99.90;;;;;;4194727;28;20582;-73
2022/02/23 10:22:28;;;;;;;7.33;1.47;;;7.20;99.90;;;;;;4187963;28;20491;-73
2022/02/23 10:24:32;;;;;;;7.87;1.47;;;7.30;99.90;;;;;;4191184;28;21365;-73
2022/02/23 10:26:35;;;;;;;9.87;1.43;;;7.30;99.90;;;;;;4191237;28;20494;-74
2022/02/23 10:28:37;;;;;;;15.87;2.10;;;7.30;99.90;;;;;;4189066;28;20836;-75
2022/02/23 10:30:45;;;;;;;9.60;1.77;;;7.30;99.90;;;;;;4193934;28;20471;-73
2022/02/23 10:32:53;;;;;;;8.00;1.60;;;7.40;99.90;;;;;;4196761;28;20517;-73
2022/02/23 10:34:56;;;;;;;9.57;1.73;;;7.40;99.90;;;;;;4191522;28;20500;-73
2022/02/23 10:37:04;;;;;;;7.03;1.30;;;7.40;99.90;;;;;;4186801;28;20476;-73
2022/02/23 10:39:12;;;;;;;5.23;1.20;;;7.50;99.90;;;;;;4189435;28;20535;-73
2022/02/23 10:41:24;;;;;;;14.70;1.90;;;7.50;99.90;;;;;;4195024;28;20463;-73
2022/02/23 10:43:29;;;;;;;8.90;1.77;;;7.50;99.90;;;;;;4191989;28;20911;-74
2022/02/23 10:45:31;;;;;;;8.33;1.87;;;7.60;99.90;;;;;;4192223;28;20872;-73
2022/02/23 10:47:36;;;;;;;8.57;1.70;;;7.60;99.90;;;;;;4190456;28;20556;-74
2022/02/23 10:49:39;;;;;;;8.50;1.60;;;7.60;99.90;;;;;;4194019;28;20459;-73
2022/02/23 10:51:45;;;;;;;11.70;2.00;;;7.60;99.90;;;;;;4188907;28;20505;-74